Time,TemperatureF,DewpointF,PressureIn,WindDirection,WindDirectionDegrees,WindSpeedMPH,WindSpeedGustMPH,Humidity,HourlyPrecipIn,Conditions,Clouds,dailyrainin,SoftwareType,DateUTC
2013-05-28 07:01:00,50.0,49.0,-100.00,SE,140,1.0,1.0,96,-99.99,,,-99.99,,2013-05-28 14:01:00,
2013-05-28 07:10:00,50.0,50.0,-100.00,NE,45,3.0,5.0,100,-99.99,,,-99.99,,2013-05-28 14:10:00,
2013-05-28 07:11:00,50.0,49.0,-100.00,SE,140,1.0,1.0,96,-99.99,,,-99.99,,2013-05-28 14:11:00,
2013-05-28 08:01:00,50.0,50.0,-100.00,NE,45,3.0,5.0,100,-99.99,,,-99.99,,2013-05-28 15:01:00,
2013-05-28 09:03:00,53.0,52.0,-100.00,NW,315,1.0,2.0,96,-99.99,,,-99.99,,2013-05-28 16:03:00,
2013-05-28 09:12:00,53.0,52.0,-100.00,NW,315,1.0,2.0,96,-99.99,,,-99.99,,2013-05-28 16:12:00,
2013-05-28 09:20:00,55.0,51.0,-100.00,ENE,70,1.0,2.0,86,-99.99,,,-99.99,,2013-05-28 16:20:00,
2013-05-28 10:02:00,55.0,51.0,-100.00,ENE,70,1.0,2.0,86,-99.99,,,-99.99,,2013-05-28 17:02:00,
2013-05-28 10:12:00,55.0,51.0,-100.00,ENE,70,1.0,2.0,86,-99.99,,,-99.99,,2013-05-28 17:12:00,
2013-05-28 11:01:00,59.0,48.0,-100.00,ENE,70,0.0,3.0,66,-99.99,,,-99.99,,2013-05-28 18:01:00,
2013-05-28 11:11:00,59.0,48.0,-100.00,ENE,70,0.0,3.0,66,-99.99,,,-99.99,,2013-05-28 18:11:00,
2013-05-28 12:01:00,61.0,49.0,-100.00,ENE,70,1.0,6.0,64,-99.99,,,-99.99,,2013-05-28 19:01:00,
2013-05-28 12:11:00,61.0,49.0,-100.00,ENE,70,1.0,6.0,64,-99.99,,,-99.99,,2013-05-28 19:11:00,
2013-05-28 13:01:00,64.0,47.0,-100.00,SE,125,3.0,5.0,53,-99.99,,,-99.99,,2013-05-28 20:01:00,
2013-05-28 13:11:00,64.0,47.0,-100.00,SE,125,3.0,5.0,53,-99.99,,,-99.99,,2013-05-28 20:11:00,
2013-05-28 14:01:00,69.0,44.0,-100.00,WSW,240,7.0,13.0,40,-99.99,,,-99.99,,2013-05-28 21:01:00,
2013-05-28 14:10:00,67.0,44.0,-100.00,SW,220,9.0,15.0,43,-99.99,,,-99.99,,2013-05-28 21:10:00,
2013-05-28 14:11:00,69.0,44.0,-100.00,WSW,240,7.0,13.0,40,-99.99,,,-99.99,,2013-05-28 21:11:00,
2013-05-28 15:02:00,67.0,44.0,-100.00,SW,220,9.0,15.0,43,-99.99,,,-99.99,,2013-05-28 22:02:00,
2013-05-28 16:02:00,67.0,41.0,-100.00,SSW,210,7.0,13.0,38,-99.99,,,-99.99,,2013-05-28 23:02:00,
2013-05-28 16:10:00,68.0,41.0,-100.00,SSW,200,6.0,9.0,37,-99.99,,,-99.99,,2013-05-28 23:10:00,
2013-05-28 16:11:00,67.0,41.0,-100.00,SSW,210,7.0,13.0,38,-99.99,,,-99.99,,2013-05-28 23:11:00,
2013-05-28 17:02:00,68.0,41.0,-100.00,SSW,200,6.0,9.0,37,-99.99,,,-99.99,,2013-05-29 00:02:00,
2013-05-28 18:01:00,68.0,41.0,-100.00,SSW,205,9.0,13.0,37,-99.99,,,-99.99,,2013-05-29 01:01:00,
2013-05-28 18:11:00,68.0,41.0,-100.00,SSW,205,9.0,13.0,37,-99.99,,,-99.99,,2013-05-29 01:11:00,
2013-05-28 19:02:00,68.0,43.0,-100.00,SSW,210,7.0,9.0,40,-99.99,,,-99.99,,2013-05-29 02:02:00,
2013-05-28 19:12:00,68.0,43.0,-100.00,SSW,210,7.0,9.0,40,-99.99,,,-99.99,,2013-05-29 02:12:00,
2013-05-28 20:02:00,68.0,43.0,-100.00,WSW,245,13.0,17.0,40,-99.99,,,-99.99,,2013-05-29 03:02:00,
2013-05-28 20:11:00,68.0,43.0,-100.00,WSW,245,13.0,17.0,40,-99.99,,,-99.99,,2013-05-29 03:11:00,
2013-05-28 21:02:00,63.0,43.0,-100.00,SW,230,6.0,9.0,47,-99.99,,,-99.99,,2013-05-29 04:02:00,
2013-05-28 21:10:00,59.0,44.0,-100.00,SW,225,10.0,13.0,57,-99.99,,,-99.99,,2013-05-29 04:10:00,
2013-05-28 21:12:00,63.0,43.0,-100.00,SW,230,6.0,9.0,47,-99.99,,,-99.99,,2013-05-29 04:12:00,
2013-05-28 22:02:00,59.0,44.0,-100.00,SW,225,10.0,13.0,57,-99.99,,,-99.99,,2013-05-29 05:02:00,
2013-05-28 23:01:00,57.0,43.0,-100.00,WSW,250,5.0,6.0,59,-99.99,,,-99.99,,2013-05-29 06:01:00,
2013-05-28 23:11:00,57.0,43.0,-100.00,WSW,250,5.0,6.0,59,-99.99,,,-99.99,,2013-05-29 06:11:00,
2013-05-28 23:20:00,53.0,43.0,-100.00,SSW,210,5.0,5.0,68,-99.99,,,-99.99,,2013-05-29 06:20:00,